Portada
METAR-TAF:

METAR-TAF

Aeroports :

Lawrence Municipal Airport

Lawrence, Kansas, Estats Units d'Amèrica

latitud: 39-00-30N, longitud: 095-12-42W, altitud: 253 m

Observació

L'informe es va fer fa 44 minuts, a les 08:52 UTC
Vent 8 kt del Sud/Sud-Oest
Temperatura 21°C
Humitat 73%
Pressió 1016 hPa
Visibilitat: 16.1 km
Cel clar

METAR: KLWC 020852Z AUTO 20008KT 10SM CLR 21/16 A2999 RMK AO2 SLP148 T02060156 58012

Hora: 04:36 (09:36 UTC)


TAF: manca

Observacions i pronòstics meteorològics de més de 4000 aeroports (METAR i TAF).

Les estacions disponibles són els punts grocs i vermells al mapa.

Posi el ratolí al punt desitjat per veure el nom de l'estació.

Feu clic per veure les observacions i els pronòstics meteorològics.

Per canviar el mapa: feu clic els botons verds amb una creu de color negre per apropar; al botó verd amb un guió per allunyar la imatge; o en les fletxes verdes per a mapes adjacents.


METAR-TAF: